createdAt,value
2022-10-07T00:00:03.202Z,89.1
2022-10-07T00:15:02.576Z,89.0
2022-10-07T00:30:03.225Z,89.0
2022-10-07T00:45:02.462Z,89.5
2022-10-07T01:00:02.925Z,89.4
2022-10-07T01:15:02.380Z,89.7
2022-10-07T01:30:02.785Z,90.1
2022-10-07T01:45:03.257Z,90.2
2022-10-07T02:00:02.651Z,90.0
2022-10-07T02:15:03.269Z,90.0
2022-10-07T02:30:02.560Z,90.1
2022-10-07T02:45:03.167Z,90.4
2022-10-07T03:00:04.320Z,90.2
2022-10-07T03:15:02.892Z,90.7
2022-10-07T03:30:02.316Z,90.7
2022-10-07T03:45:02.755Z,90.6
2022-10-07T04:00:03.275Z,90.8
2022-10-07T04:15:02.617Z,91.0
2022-10-07T04:30:03.274Z,90.9
2022-10-07T04:45:02.493Z,90.8
2022-10-07T05:00:02.915Z,90.9
2022-10-07T05:15:02.356Z,91.2
2022-10-07T05:30:02.806Z,91.6
2022-10-07T05:45:03.293Z,92.5
2022-10-07T06:00:02.692Z,92.8
2022-10-07T06:15:03.298Z,93.0
2022-10-07T06:30:02.579Z,93.0
2022-10-07T06:45:03.048Z,93.2
2022-10-07T07:00:02.425Z,93.4
2022-10-07T07:15:02.882Z,93.5
2022-10-07T07:30:02.342Z,93.5
2022-10-07T07:45:02.769Z,93.5
2022-10-07T08:00:03.337Z,93.4
2022-10-07T08:15:02.639Z,93.2
2022-10-07T08:30:03.053Z,93.0
2022-10-07T08:45:02.518Z,91.4
2022-10-07T09:00:02.921Z,86.7
2022-10-07T09:15:02.392Z,79.2
2022-10-07T09:30:02.846Z,71.8
2022-10-07T09:45:02.327Z,61.6
2022-10-07T10:00:02.762Z,56.5
2022-10-07T10:15:03.322Z,56.2
2022-10-07T10:30:02.622Z,53.0
2022-10-07T10:45:03.090Z,55.6
2022-10-07T11:00:02.520Z,53.5
2022-10-07T11:15:02.973Z,53.2
2022-10-07T11:30:02.420Z,54.1
2022-10-07T11:45:02.862Z,50.7
2022-10-07T12:00:02.382Z,51.2
2022-10-07T12:15:02.766Z,51.4
2022-10-07T12:30:03.390Z,48.0
2022-10-07T12:45:02.639Z,50.1
2022-10-07T13:00:03.068Z,48.8
2022-10-07T13:15:02.500Z,49.6
2022-10-07T13:30:02.946Z,49.5
2022-10-07T13:45:02.398Z,49.5
2022-10-07T14:00:02.821Z,50.9
2022-10-07T14:15:03.371Z,52.1
2022-10-07T14:30:02.737Z,54.5
2022-10-07T14:45:03.370Z,56.5
2022-10-07T15:00:02.590Z,56.6
2022-10-07T15:15:03.078Z,58.1
2022-10-07T15:30:02.513Z,58.7
2022-10-07T15:45:02.907Z,59.3
2022-10-07T16:00:02.422Z,61.2
2022-10-07T16:15:02.826Z,62.0
2022-10-07T16:30:02.421Z,62.7
2022-10-07T16:45:02.725Z,64.0
2022-10-07T17:00:03.127Z,67.0
2022-10-07T17:15:02.571Z,68.7
2022-10-07T17:30:03.054Z,69.2
2022-10-07T17:45:02.457Z,69.6
2022-10-07T18:00:02.862Z,71.2
2022-10-07T18:15:02.443Z,71.8
2022-10-07T18:30:02.779Z,73.1
2022-10-07T18:45:03.443Z,73.8
2022-10-07T19:00:02.642Z,75.6
2022-10-07T19:15:03.122Z,76.8
2022-10-07T19:30:02.525Z,77.5
2022-10-07T19:45:02.986Z,78.2
2022-10-07T20:00:02.464Z,78.6
2022-10-07T20:15:02.878Z,79.5
2022-10-07T20:30:02.530Z,79.9
2022-10-07T20:45:02.757Z,80.4
2022-10-07T21:00:03.195Z,80.8
2022-10-07T21:15:02.627Z,81.5
2022-10-07T21:30:03.041Z,82.1
2022-10-07T21:45:02.507Z,82.8
2022-10-07T22:00:02.921Z,84.0
2022-10-07T22:15:02.476Z,84.7
2022-10-07T22:30:02.802Z,86.2
2022-10-07T22:45:03.460Z,88.6
2022-10-07T23:00:02.695Z,88.5
2022-10-07T23:15:03.126Z,88.7
2022-10-07T23:30:02.562Z,88.9
2022-10-07T23:45:02.969Z,88.6
